sensor_id;sensor_type;location;lat;lon;timestamp;P1;durP1;ratioP1;P2;durP2;ratioP2
12906;SDS011;6521;50.498;8.474;2023-05-10T00:02:06;1.23;;;1.13;;
12906;SDS011;6521;50.498;8.474;2023-05-10T00:04:37;1.70;;;1.38;;
12906;SDS011;6521;50.498;8.474;2023-05-10T00:07:08;0.80;;;0.80;;
12906;SDS011;6521;50.498;8.474;2023-05-10T00:09:38;2.35;;;0.80;;
12906;SDS011;6521;50.498;8.474;2023-05-10T00:12:10;1.00;;;0.80;;
12906;SDS011;6521;50.498;8.474;2023-05-10T00:14:41;2.08;;;0.70;;
12906;SDS011;6521;50.498;8.474;2023-05-10T00:17:12;0.50;;;0.50;;
12906;SDS011;6521;50.498;8.474;2023-05-10T00:19:42;0.95;;;0.60;;
12906;SDS011;6521;50.498;8.474;2023-05-10T00:22:13;0.68;;;0.68;;
12906;SDS011;6521;50.498;8.474;2023-05-10T00:24:44;3.47;;;1.08;;
12906;SDS011;6521;50.498;8.474;2023-05-10T00:27:15;0.50;;;0.50;;
12906;SDS011;6521;50.498;8.474;2023-05-10T00:29:45;2.28;;;0.63;;
12906;SDS011;6521;50.498;8.474;2023-05-10T00:32:16;0.45;;;0.45;;
12906;SDS011;6521;50.498;8.474;2023-05-10T00:34:47;0.77;;;0.77;;
12906;SDS011;6521;50.498;8.474;2023-05-10T00:37:18;0.70;;;0.70;;
12906;SDS011;6521;50.498;8.474;2023-05-10T00:39:49;0.60;;;0.60;;
12906;SDS011;6521;50.498;8.474;2023-05-10T00:42:20;0.50;;;0.50;;
12906;SDS011;6521;50.498;8.474;2023-05-10T00:44:50;0.82;;;0.52;;
12906;SDS011;6521;50.498;8.474;2023-05-10T00:47:22;0.60;;;0.60;;
12906;SDS011;6521;50.498;8.474;2023-05-10T00:49:52;0.82;;;0.57;;
12906;SDS011;6521;50.498;8.474;2023-05-10T00:52:23;0.73;;;0.60;;
12906;SDS011;6521;50.498;8.474;2023-05-10T00:54:54;1.20;;;0.73;;
12906;SDS011;6521;50.498;8.474;2023-05-10T00:57:25;0.60;;;0.50;;
12906;SDS011;6521;50.498;8.474;2023-05-10T00:59:56;0.80;;;0.80;;
12906;SDS011;6521;50.498;8.474;2023-05-10T01:02:28;0.45;;;0.45;;
12906;SDS011;6521;50.498;8.474;2023-05-10T01:05:01;0.63;;;0.63;;
12906;SDS011;6521;50.498;8.474;2023-05-10T01:07:34;0.65;;;0.65;;
12906;SDS011;6521;50.498;8.474;2023-05-10T01:10:05;2.05;;;0.65;;
12906;SDS011;6521;50.498;8.474;2023-05-10T01:12:38;0.63;;;0.63;;
12906;SDS011;6521;50.498;8.474;2023-05-10T01:15:10;0.50;;;0.50;;
12906;SDS011;6521;50.498;8.474;2023-05-10T01:17:42;0.90;;;0.80;;
12906;SDS011;6521;50.498;8.474;2023-05-10T01:20:15;2.77;;;0.80;;
12906;SDS011;6521;50.498;8.474;2023-05-10T01:31:17;0.75;;;0.65;;
12906;SDS011;6521;50.498;8.474;2023-05-10T01:34:02;1.17;;;1.07;;
12906;SDS011;6521;50.498;8.474;2023-05-10T01:36:55;0.85;;;0.85;;
12906;SDS011;6521;50.498;8.474;2023-05-10T01:42:40;0.93;;;0.93;;
12906;SDS011;6521;50.498;8.474;2023-05-10T01:48:09;1.13;;;0.77;;
12906;SDS011;6521;50.498;8.474;2023-05-10T01:50:42;3.78;;;1.00;;
12906;SDS011;6521;50.498;8.474;2023-05-10T01:53:17;0.95;;;0.85;;
12906;SDS011;6521;50.498;8.474;2023-05-10T01:55:51;0.60;;;0.60;;
12906;SDS011;6521;50.498;8.474;2023-05-10T01:58:27;0.70;;;0.70;;
12906;SDS011;6521;50.498;8.474;2023-05-10T02:01:01;0.70;;;0.70;;
12906;SDS011;6521;50.498;8.474;2023-05-10T02:03:34;0.90;;;0.90;;
12906;SDS011;6521;50.498;8.474;2023-05-10T02:06:07;1.27;;;1.13;;
12906;SDS011;6521;50.498;8.474;2023-05-10T02:08:40;1.17;;;1.08;;
12906;SDS011;6521;50.498;8.474;2023-05-10T02:11:12;1.70;;;1.60;;
12906;SDS011;6521;50.498;8.474;2023-05-10T02:13:44;1.50;;;1.40;;
12906;SDS011;6521;50.498;8.474;2023-05-10T02:16:17;1.70;;;1.60;;
12906;SDS011;6521;50.498;8.474;2023-05-10T02:18:52;1.90;;;1.80;;
12906;SDS011;6521;50.498;8.474;2023-05-10T02:21:24;5.80;;;1.70;;
12906;SDS011;6521;50.498;8.474;2023-05-10T02:23:57;3.70;;;2.00;;
12906;SDS011;6521;50.498;8.474;2023-05-10T02:26:29;2.47;;;2.27;;
12906;SDS011;6521;50.498;8.474;2023-05-10T02:29:03;1.90;;;1.67;;
12906;SDS011;6521;50.498;8.474;2023-05-10T02:31:36;3.50;;;2.30;;
12906;SDS011;6521;50.498;8.474;2023-05-10T02:34:09;2.10;;;1.90;;
12906;SDS011;6521;50.498;8.474;2023-05-10T02:36:41;1.90;;;1.80;;
12906;SDS011;6521;50.498;8.474;2023-05-10T02:39:13;1.83;;;1.67;;
12906;SDS011;6521;50.498;8.474;2023-05-10T02:41:46;2.07;;;1.90;;
12906;SDS011;6521;50.498;8.474;2023-05-10T02:44:18;2.07;;;1.60;;
12906;SDS011;6521;50.498;8.474;2023-05-10T02:46:51;4.33;;;1.90;;
12906;SDS011;6521;50.498;8.474;2023-05-10T02:49:22;4.53;;;2.10;;
12906;SDS011;6521;50.498;8.474;2023-05-10T02:51:54;1.60;;;1.50;;
12906;SDS011;6521;50.498;8.474;2023-05-10T02:54:30;2.25;;;1.83;;
12906;SDS011;6521;50.498;8.474;2023-05-10T02:57:04;3.23;;;1.83;;
12906;SDS011;6521;50.498;8.474;2023-05-10T02:59:36;5.53;;;1.67;;
12906;SDS011;6521;50.498;8.474;2023-05-10T03:02:07;5.93;;;1.77;;
12906;SDS011;6521;50.498;8.474;2023-05-10T03:04:38;2.73;;;1.20;;
12906;SDS011;6521;50.498;8.474;2023-05-10T03:07:09;1.80;;;1.70;;
12906;SDS011;6521;50.498;8.474;2023-05-10T03:09:40;2.17;;;1.97;;
12906;SDS011;6521;50.498;8.474;2023-05-10T03:14:53;4.23;;;2.33;;
12906;SDS011;6521;50.498;8.474;2023-05-10T03:20:26;2.60;;;2.40;;
12906;SDS011;6521;50.498;8.474;2023-05-10T03:23:46;2.73;;;2.30;;
12906;SDS011;6521;50.498;8.474;2023-05-10T03:26:07;2.60;;;2.37;;
12906;SDS011;6521;50.498;8.474;2023-05-10T03:28:38;3.93;;;2.87;;
12906;SDS011;6521;50.498;8.474;2023-05-10T03:31:10;2.60;;;2.40;;
12906;SDS011;6521;50.498;8.474;2023-05-10T03:33:50;4.27;;;3.17;;
12906;SDS011;6521;50.498;8.474;2023-05-10T03:36:27;3.30;;;2.77;;
12906;SDS011;6521;50.498;8.474;2023-05-10T03:38:59;3.40;;;3.10;;
12906;SDS011;6521;50.498;8.474;2023-05-10T03:41:30;3.30;;;2.73;;
12906;SDS011;6521;50.498;8.474;2023-05-10T03:44:01;4.80;;;3.17;;
12906;SDS011;6521;50.498;8.474;2023-05-10T03:46:32;3.27;;;2.93;;
12906;SDS011;6521;50.498;8.474;2023-05-10T03:49:03;3.83;;;3.33;;
12906;SDS011;6521;50.498;8.474;2023-05-10T03:51:34;5.87;;;3.03;;
12906;SDS011;6521;50.498;8.474;2023-05-10T03:54:05;6.82;;;3.22;;
12906;SDS011;6521;50.498;8.474;2023-05-10T03:56:36;3.53;;;2.60;;
12906;SDS011;6521;50.498;8.474;2023-05-10T03:59:07;3.77;;;3.37;;
12906;SDS011;6521;50.498;8.474;2023-05-10T04:01:39;2.53;;;2.33;;
12906;SDS011;6521;50.498;8.474;2023-05-10T04:04:10;2.43;;;2.23;;
12906;SDS011;6521;50.498;8.474;2023-05-10T04:06:41;4.17;;;2.30;;
12906;SDS011;6521;50.498;8.474;2023-05-10T04:09:12;5.60;;;2.63;;
12906;SDS011;6521;50.498;8.474;2023-05-10T04:11:43;3.07;;;2.20;;
12906;SDS011;6521;50.498;8.474;2023-05-10T04:14:14;2.03;;;1.90;;
12906;SDS011;6521;50.498;8.474;2023-05-10T04:16:46;2.00;;;1.90;;
12906;SDS011;6521;50.498;8.474;2023-05-10T04:19:16;5.75;;;2.17;;
12906;SDS011;6521;50.498;8.474;2023-05-10T04:21:47;2.27;;;2.07;;
12906;SDS011;6521;50.498;8.474;2023-05-10T04:24:17;4.38;;;2.10;;
12906;SDS011;6521;50.498;8.474;2023-05-10T04:26:48;2.80;;;2.30;;
12906;SDS011;6521;50.498;8.474;2023-05-10T04:29:19;1.77;;;1.67;;
12906;SDS011;6521;50.498;8.474;2023-05-10T04:31:50;3.70;;;2.27;;
12906;SDS011;6521;50.498;8.474;2023-05-10T04:34:21;2.30;;;2.10;;
12906;SDS011;6521;50.498;8.474;2023-05-10T04:36:51;2.38;;;2.17;;
12906;SDS011;6521;50.498;8.474;2023-05-10T04:39:22;2.73;;;1.90;;
12906;SDS011;6521;50.498;8.474;2023-05-10T04:41:53;2.63;;;2.37;;
12906;SDS011;6521;50.498;8.474;2023-05-10T04:44:23;2.17;;;1.97;;
12906;SDS011;6521;50.498;8.474;2023-05-10T04:46:54;4.20;;;2.17;;
12906;SDS011;6521;50.498;8.474;2023-05-10T04:49:25;2.20;;;1.90;;
12906;SDS011;6521;50.498;8.474;2023-05-10T04:51:56;3.37;;;1.97;;
12906;SDS011;6521;50.498;8.474;2023-05-10T04:54:27;2.27;;;1.93;;
12906;SDS011;6521;50.498;8.474;2023-05-10T04:56:57;2.65;;;1.88;;
12906;SDS011;6521;50.498;8.474;2023-05-10T04:59:28;2.40;;;2.03;;
12906;SDS011;6521;50.498;8.474;2023-05-10T05:01:59;3.17;;;2.10;;
12906;SDS011;6521;50.498;8.474;2023-05-10T05:04:30;8.13;;;2.53;;
12906;SDS011;6521;50.498;8.474;2023-05-10T05:07:01;4.17;;;1.80;;
12906;SDS011;6521;50.498;8.474;2023-05-10T05:09:32;1.98;;;1.60;;
12906;SDS011;6521;50.498;8.474;2023-05-10T05:12:03;2.42;;;1.50;;
12906;SDS011;6521;50.498;8.474;2023-05-10T05:14:34;2.35;;;1.60;;
12906;SDS011;6521;50.498;8.474;2023-05-10T05:17:05;3.50;;;1.50;;
12906;SDS011;6521;50.498;8.474;2023-05-10T05:19:36;1.60;;;1.30;;
12906;SDS011;6521;50.498;8.474;2023-05-10T05:22:07;2.40;;;1.48;;
12906;SDS011;6521;50.498;8.474;2023-05-10T05:24:38;2.20;;;1.80;;
12906;SDS011;6521;50.498;8.474;2023-05-10T05:27:09;4.45;;;2.22;;
12906;SDS011;6521;50.498;8.474;2023-05-10T05:29:40;1.83;;;1.73;;
12906;SDS011;6521;50.498;8.474;2023-05-10T05:32:11;2.58;;;1.30;;
12906;SDS011;6521;50.498;8.474;2023-05-10T05:34:43;1.10;;;1.00;;
12906;SDS011;6521;50.498;8.474;2023-05-10T05:37:15;1.20;;;1.10;;
12906;SDS011;6521;50.498;8.474;2023-05-10T05:39:46;1.20;;;1.10;;
12906;SDS011;6521;50.498;8.474;2023-05-10T05:42:17;3.53;;;1.60;;
12906;SDS011;6521;50.498;8.474;2023-05-10T05:44:49;1.23;;;1.15;;
12906;SDS011;6521;50.498;8.474;2023-05-10T05:47:19;1.30;;;1.20;;
12906;SDS011;6521;50.498;8.474;2023-05-10T05:49:50;1.38;;;1.27;;
12906;SDS011;6521;50.498;8.474;2023-05-10T05:52:21;1.88;;;1.23;;
12906;SDS011;6521;50.498;8.474;2023-05-10T05:54:52;1.50;;;1.40;;
12906;SDS011;6521;50.498;8.474;2023-05-10T05:57:22;2.25;;;1.30;;
12906;SDS011;6521;50.498;8.474;2023-05-10T05:59:53;1.50;;;1.40;;
12906;SDS011;6521;50.498;8.474;2023-05-10T06:02:24;1.33;;;1.23;;
12906;SDS011;6521;50.498;8.474;2023-05-10T06:04:55;2.80;;;1.77;;
12906;SDS011;6521;50.498;8.474;2023-05-10T06:07:25;2.72;;;1.30;;
12906;SDS011;6521;50.498;8.474;2023-05-10T06:09:57;4.00;;;1.50;;
12906;SDS011;6521;50.498;8.474;2023-05-10T06:12:28;2.88;;;1.52;;
12906;SDS011;6521;50.498;8.474;2023-05-10T06:14:58;3.58;;;1.40;;
12906;SDS011;6521;50.498;8.474;2023-05-10T06:17:29;5.63;;;2.05;;
12906;SDS011;6521;50.498;8.474;2023-05-10T06:20:00;1.70;;;1.60;;
12906;SDS011;6521;50.498;8.474;2023-05-10T06:22:31;6.82;;;1.67;;
12906;SDS011;6521;50.498;8.474;2023-05-10T06:25:02;3.30;;;1.85;;
12906;SDS011;6521;50.498;8.474;2023-05-10T06:27:33;5.20;;;1.55;;
12906;SDS011;6521;50.498;8.474;2023-05-10T06:30:04;1.80;;;1.52;;
12906;SDS011;6521;50.498;8.474;2023-05-10T06:32:35;1.90;;;1.77;;
12906;SDS011;6521;50.498;8.474;2023-05-10T06:35:06;6.00;;;1.70;;
12906;SDS011;6521;50.498;8.474;2023-05-10T06:37:38;3.15;;;1.70;;
12906;SDS011;6521;50.498;8.474;2023-05-10T06:40:09;2.70;;;1.65;;
12906;SDS011;6521;50.498;8.474;2023-05-10T06:42:40;1.88;;;1.50;;
12906;SDS011;6521;50.498;8.474;2023-05-10T06:45:10;2.80;;;1.83;;
12906;SDS011;6521;50.498;8.474;2023-05-10T06:47:41;4.75;;;1.85;;
12906;SDS011;6521;50.498;8.474;2023-05-10T06:50:12;2.17;;;1.90;;
12906;SDS011;6521;50.498;8.474;2023-05-10T06:52:43;1.98;;;1.67;;
12906;SDS011;6521;50.498;8.474;2023-05-10T06:55:14;2.13;;;1.92;;
12906;SDS011;6521;50.498;8.474;2023-05-10T06:57:44;6.03;;;1.88;;
12906;SDS011;6521;50.498;8.474;2023-05-10T07:00:15;1.90;;;1.70;;
12906;SDS011;6521;50.498;8.474;2023-05-10T07:02:47;2.65;;;1.90;;
12906;SDS011;6521;50.498;8.474;2023-05-10T07:05:17;2.40;;;2.20;;
12906;SDS011;6521;50.498;8.474;2023-05-10T07:07:48;1.85;;;1.75;;
12906;SDS011;6521;50.498;8.474;2023-05-10T07:10:19;3.28;;;1.60;;
12906;SDS011;6521;50.498;8.474;2023-05-10T07:12:50;2.22;;;1.92;;
12906;SDS011;6521;50.498;8.474;2023-05-10T07:15:21;1.90;;;1.50;;
12906;SDS011;6521;50.498;8.474;2023-05-10T07:17:51;3.40;;;1.85;;
12906;SDS011;6521;50.498;8.474;2023-05-10T07:20:22;1.75;;;1.65;;
12906;SDS011;6521;50.498;8.474;2023-05-10T07:22:53;1.50;;;1.40;;
12906;SDS011;6521;50.498;8.474;2023-05-10T07:25:24;3.15;;;1.55;;
12906;SDS011;6521;50.498;8.474;2023-05-10T07:27:55;2.42;;;1.63;;
12906;SDS011;6521;50.498;8.474;2023-05-10T07:30:25;2.13;;;1.92;;
12906;SDS011;6521;50.498;8.474;2023-05-10T07:32:56;3.33;;;1.75;;
12906;SDS011;6521;50.498;8.474;2023-05-10T07:35:27;1.90;;;1.80;;
12906;SDS011;6521;50.498;8.474;2023-05-10T07:37:57;8.23;;;1.85;;
12906;SDS011;6521;50.498;8.474;2023-05-10T07:40:28;2.95;;;1.63;;
12906;SDS011;6521;50.498;8.474;2023-05-10T07:42:59;3.05;;;1.80;;
12906;SDS011;6521;50.498;8.474;2023-05-10T07:45:33;7.90;;;2.03;;
12906;SDS011;6521;50.498;8.474;2023-05-10T07:48:04;1.70;;;1.60;;
12906;SDS011;6521;50.498;8.474;2023-05-10T07:50:35;2.95;;;1.80;;
12906;SDS011;6521;50.498;8.474;2023-05-10T07:53:05;3.25;;;1.92;;
12906;SDS011;6521;50.498;8.474;2023-05-10T07:55:36;4.35;;;1.70;;
12906;SDS011;6521;50.498;8.474;2023-05-10T07:58:08;2.25;;;2.05;;
12906;SDS011;6521;50.498;8.474;2023-05-10T08:00:38;2.50;;;2.30;;
12906;SDS011;6521;50.498;8.474;2023-05-10T08:03:11;3.30;;;2.08;;
12906;SDS011;6521;50.498;8.474;2023-05-10T08:05:42;3.75;;;2.92;;
12906;SDS011;6521;50.498;8.474;2023-05-10T08:08:13;5.68;;;3.10;;
12906;SDS011;6521;50.498;8.474;2023-05-10T08:10:43;10.93;;;3.42;;
12906;SDS011;6521;50.498;8.474;2023-05-10T08:13:14;3.70;;;3.40;;
12906;SDS011;6521;50.498;8.474;2023-05-10T08:15:45;4.35;;;3.42;;
12906;SDS011;6521;50.498;8.474;2023-05-10T08:18:16;3.97;;;3.40;;
12906;SDS011;6521;50.498;8.474;2023-05-10T08:20:47;5.05;;;3.60;;
12906;SDS011;6521;50.498;8.474;2023-05-10T08:23:17;5.15;;;3.17;;
12906;SDS011;6521;50.498;8.474;2023-05-10T08:25:48;4.07;;;3.25;;
12906;SDS011;6521;50.498;8.474;2023-05-10T08:28:19;3.70;;;2.53;;
12906;SDS011;6521;50.498;8.474;2023-05-10T08:30:50;4.13;;;2.40;;
12906;SDS011;6521;50.498;8.474;2023-05-10T08:33:21;5.85;;;3.00;;
12906;SDS011;6521;50.498;8.474;2023-05-10T08:35:51;4.57;;;2.45;;
12906;SDS011;6521;50.498;8.474;2023-05-10T08:38:22;2.97;;;2.55;;
12906;SDS011;6521;50.498;8.474;2023-05-10T08:40:53;3.63;;;2.58;;
12906;SDS011;6521;50.498;8.474;2023-05-10T08:43:29;5.10;;;3.00;;
12906;SDS011;6521;50.498;8.474;2023-05-10T08:46:00;3.25;;;2.65;;
12906;SDS011;6521;50.498;8.474;2023-05-10T08:48:34;3.50;;;3.00;;
12906;SDS011;6521;50.498;8.474;2023-05-10T08:51:06;7.78;;;3.88;;
12906;SDS011;6521;50.498;8.474;2023-05-10T08:53:39;4.47;;;3.42;;
12906;SDS011;6521;50.498;8.474;2023-05-10T08:56:10;3.85;;;3.42;;
12906;SDS011;6521;50.498;8.474;2023-05-10T08:58:43;4.90;;;3.10;;
12906;SDS011;6521;50.498;8.474;2023-05-10T09:01:14;5.65;;;3.88;;
12906;SDS011;6521;50.498;8.474;2023-05-10T09:03:46;5.78;;;4.88;;
12906;SDS011;6521;50.498;8.474;2023-05-10T09:06:19;10.70;;;4.97;;
12906;SDS011;6521;50.498;8.474;2023-05-10T09:08:50;6.80;;;4.97;;
12906;SDS011;6521;50.498;8.474;2023-05-10T09:11:22;9.20;;;4.88;;
12906;SDS011;6521;50.498;8.474;2023-05-10T09:13:54;3.75;;;3.35;;
12906;SDS011;6521;50.498;8.474;2023-05-10T09:16:25;2.83;;;2.63;;
12906;SDS011;6521;50.498;8.474;2023-05-10T09:18:56;9.55;;;4.15;;
12906;SDS011;6521;50.498;8.474;2023-05-10T09:21:27;4.10;;;3.70;;
12906;SDS011;6521;50.498;8.474;2023-05-10T09:23:58;5.05;;;3.85;;
12906;SDS011;6521;50.498;8.474;2023-05-10T09:26:33;4.25;;;3.50;;
12906;SDS011;6521;50.498;8.474;2023-05-10T09:29:05;5.43;;;3.78;;
12906;SDS011;6521;50.498;8.474;2023-05-10T09:31:46;3.40;;;3.10;;
12906;SDS011;6521;50.498;8.474;2023-05-10T09:34:18;7.53;;;3.83;;
12906;SDS011;6521;50.498;8.474;2023-05-10T09:36:55;5.85;;;3.63;;
12906;SDS011;6521;50.498;8.474;2023-05-10T09:39:31;4.00;;;3.33;;
12906;SDS011;6521;50.498;8.474;2023-05-10T09:42:06;4.28;;;2.80;;
12906;SDS011;6521;50.498;8.474;2023-05-10T09:44:39;5.70;;;4.10;;
12906;SDS011;6521;50.498;8.474;2023-05-10T09:47:11;5.20;;;3.30;;
12906;SDS011;6521;50.498;8.474;2023-05-10T09:49:52;4.10;;;3.38;;
12906;SDS011;6521;50.498;8.474;2023-05-10T09:52:23;7.70;;;4.57;;
12906;SDS011;6521;50.498;8.474;2023-05-10T09:54:54;5.70;;;4.35;;
12906;SDS011;6521;50.498;8.474;2023-05-10T09:57:25;6.00;;;4.47;;
12906;SDS011;6521;50.498;8.474;2023-05-10T09:59:56;5.80;;;4.03;;
12906;SDS011;6521;50.498;8.474;2023-05-10T10:02:30;7.65;;;4.03;;
12906;SDS011;6521;50.498;8.474;2023-05-10T10:05:02;7.78;;;4.07;;
12906;SDS011;6521;50.498;8.474;2023-05-10T10:07:35;4.90;;;3.95;;
12906;SDS011;6521;50.498;8.474;2023-05-10T10:10:06;8.18;;;4.10;;
12906;SDS011;6521;50.498;8.474;2023-05-10T10:12:41;4.75;;;3.83;;
12906;SDS011;6521;50.498;8.474;2023-05-10T10:15:14;4.63;;;3.88;;
12906;SDS011;6521;50.498;8.474;2023-05-10T10:17:46;4.38;;;3.05;;
12906;SDS011;6521;50.498;8.474;2023-05-10T10:20:17;7.20;;;3.60;;
12906;SDS011;6521;50.498;8.474;2023-05-10T10:22:49;7.93;;;3.28;;
12906;SDS011;6521;50.498;8.474;2023-05-10T10:25:22;7.47;;;4.50;;
12906;SDS011;6521;50.498;8.474;2023-05-10T10:30:42;4.93;;;4.15;;
12906;SDS011;6521;50.498;8.474;2023-05-10T10:36:17;7.50;;;3.85;;
12906;SDS011;6521;50.498;8.474;2023-05-10T10:41:33;4.60;;;3.50;;
12906;SDS011;6521;50.498;8.474;2023-05-10T10:44:24;5.25;;;4.25;;
12906;SDS011;6521;50.498;8.474;2023-05-10T10:47:20;7.80;;;4.50;;
12906;SDS011;6521;50.498;8.474;2023-05-10T10:52:30;5.40;;;3.50;;
12906;SDS011;6521;50.498;8.474;2023-05-10T11:00:21;6.82;;;3.85;;
12906;SDS011;6521;50.498;8.474;2023-05-10T11:02:57;5.05;;;3.70;;
12906;SDS011;6521;50.498;8.474;2023-05-10T11:13:38;7.47;;;2.67;;
12906;SDS011;6521;50.498;8.474;2023-05-10T11:16:23;4.70;;;3.38;;
12906;SDS011;6521;50.498;8.474;2023-05-10T11:21:34;5.18;;;3.25;;
12906;SDS011;6521;50.498;8.474;2023-05-10T11:24:34;5.95;;;3.67;;
12906;SDS011;6521;50.498;8.474;2023-05-10T11:27:06;2.97;;;2.60;;
12906;SDS011;6521;50.498;8.474;2023-05-10T11:29:37;3.28;;;1.73;;
12906;SDS011;6521;50.498;8.474;2023-05-10T11:32:07;2.90;;;1.77;;
12906;SDS011;6521;50.498;8.474;2023-05-10T11:34:39;1.80;;;1.58;;
12906;SDS011;6521;50.498;8.474;2023-05-10T11:37:09;4.57;;;1.40;;
12906;SDS011;6521;50.498;8.474;2023-05-10T11:39:45;2.10;;;1.48;;
12906;SDS011;6521;50.498;8.474;2023-05-10T11:42:16;6.47;;;1.63;;
12906;SDS011;6521;50.498;8.474;2023-05-10T11:44:47;4.35;;;1.45;;
12906;SDS011;6521;50.498;8.474;2023-05-10T11:47:18;6.60;;;1.40;;
12906;SDS011;6521;50.498;8.474;2023-05-10T11:49:50;3.55;;;1.67;;
12906;SDS011;6521;50.498;8.474;2023-05-10T11:52:22;6.00;;;1.75;;
12906;SDS011;6521;50.498;8.474;2023-05-10T11:54:54;2.08;;;1.33;;
12906;SDS011;6521;50.498;8.474;2023-05-10T11:57:28;3.17;;;1.70;;
12906;SDS011;6521;50.498;8.474;2023-05-10T11:59:59;2.38;;;1.55;;
12906;SDS011;6521;50.498;8.474;2023-05-10T12:02:30;3.70;;;1.60;;
12906;SDS011;6521;50.498;8.474;2023-05-10T12:05:00;3.30;;;1.60;;
12906;SDS011;6521;50.498;8.474;2023-05-10T12:07:33;2.47;;;1.23;;
12906;SDS011;6521;50.498;8.474;2023-05-10T12:12:38;1.75;;;1.60;;
12906;SDS011;6521;50.498;8.474;2023-05-10T12:15:20;2.20;;;1.48;;
12906;SDS011;6521;50.498;8.474;2023-05-10T12:17:53;2.53;;;1.52;;
12906;SDS011;6521;50.498;8.474;2023-05-10T12:20:26;3.85;;;1.30;;
12906;SDS011;6521;50.498;8.474;2023-05-10T12:22:58;1.67;;;1.08;;
12906;SDS011;6521;50.498;8.474;2023-05-10T12:25:33;8.10;;;1.17;;
12906;SDS011;6521;50.498;8.474;2023-05-10T12:28:05;1.05;;;0.90;;
12906;SDS011;6521;50.498;8.474;2023-05-10T12:30:38;0.90;;;0.90;;
12906;SDS011;6521;50.498;8.474;2023-05-10T12:33:12;1.00;;;1.00;;
12906;SDS011;6521;50.498;8.474;2023-05-10T12:41:01;1.42;;;1.33;;
12906;SDS011;6521;50.498;8.474;2023-05-10T12:43:33;1.70;;;1.35;;
12906;SDS011;6521;50.498;8.474;2023-05-10T12:46:05;1.98;;;1.05;;
12906;SDS011;6521;50.498;8.474;2023-05-10T12:48:39;2.50;;;1.33;;
12906;SDS011;6521;50.498;8.474;2023-05-10T12:51:11;2.78;;;1.08;;
12906;SDS011;6521;50.498;8.474;2023-05-10T12:53:43;2.70;;;1.25;;
12906;SDS011;6521;50.498;8.474;2023-05-10T12:56:16;5.32;;;1.00;;
12906;SDS011;6521;50.498;8.474;2023-05-10T12:58:46;2.05;;;0.90;;
12906;SDS011;6521;50.498;8.474;2023-05-10T13:01:18;2.90;;;0.95;;
12906;SDS011;6521;50.498;8.474;2023-05-10T13:03:49;3.30;;;1.95;;
12906;SDS011;6521;50.498;8.474;2023-05-10T13:06:20;2.20;;;1.73;;
12906;SDS011;6521;50.498;8.474;2023-05-10T13:08:51;1.20;;;1.10;;
12906;SDS011;6521;50.498;8.474;2023-05-10T13:11:22;2.17;;;0.90;;
12906;SDS011;6521;50.498;8.474;2023-05-10T13:13:52;5.75;;;0.90;;
12906;SDS011;6521;50.498;8.474;2023-05-10T13:16:23;1.17;;;1.10;;
12906;SDS011;6521;50.498;8.474;2023-05-10T13:18:54;0.80;;;0.80;;
12906;SDS011;6521;50.498;8.474;2023-05-10T13:21:24;1.90;;;0.75;;
12906;SDS011;6521;50.498;8.474;2023-05-10T13:23:55;0.90;;;0.90;;
12906;SDS011;6521;50.498;8.474;2023-05-10T13:26:26;11.65;;;1.30;;
12906;SDS011;6521;50.498;8.474;2023-05-10T13:28:57;0.65;;;0.63;;
12906;SDS011;6521;50.498;8.474;2023-05-10T13:31:28;1.27;;;0.77;;
12906;SDS011;6521;50.498;8.474;2023-05-10T13:33:58;2.03;;;0.70;;
12906;SDS011;6521;50.498;8.474;2023-05-10T13:36:29;2.33;;;0.75;;
12906;SDS011;6521;50.498;8.474;2023-05-10T13:39:00;2.53;;;0.50;;
12906;SDS011;6521;50.498;8.474;2023-05-10T13:41:33;1.05;;;0.70;;
12906;SDS011;6521;50.498;8.474;2023-05-10T13:44:04;0.40;;;0.40;;
12906;SDS011;6521;50.498;8.474;2023-05-10T13:46:35;0.95;;;0.70;;
12906;SDS011;6521;50.498;8.474;2023-05-10T13:49:05;1.10;;;0.93;;
12906;SDS011;6521;50.498;8.474;2023-05-10T13:51:37;1.40;;;1.30;;
12906;SDS011;6521;50.498;8.474;2023-05-10T13:54:07;1.73;;;1.05;;
12906;SDS011;6521;50.498;8.474;2023-05-10T13:56:38;1.55;;;0.80;;
12906;SDS011;6521;50.498;8.474;2023-05-10T13:59:11;1.58;;;1.00;;
12906;SDS011;6521;50.498;8.474;2023-05-10T14:01:42;4.63;;;1.38;;
12906;SDS011;6521;50.498;8.474;2023-05-10T14:04:16;1.85;;;1.25;;
12906;SDS011;6521;50.498;8.474;2023-05-10T14:06:47;0.70;;;0.70;;
12906;SDS011;6521;50.498;8.474;2023-05-10T14:09:18;0.70;;;0.70;;
12906;SDS011;6521;50.498;8.474;2023-05-10T14:11:49;1.55;;;0.98;;
12906;SDS011;6521;50.498;8.474;2023-05-10T14:14:19;2.05;;;0.85;;
12906;SDS011;6521;50.498;8.474;2023-05-10T14:16:50;0.95;;;0.80;;
12906;SDS011;6521;50.498;8.474;2023-05-10T14:19:22;1.75;;;0.90;;
12906;SDS011;6521;50.498;8.474;2023-05-10T14:21:52;0.68;;;0.68;;
12906;SDS011;6521;50.498;8.474;2023-05-10T14:24:23;2.47;;;0.57;;
12906;SDS011;6521;50.498;8.474;2023-05-10T14:26:54;1.85;;;0.60;;
12906;SDS011;6521;50.498;8.474;2023-05-10T14:29:25;2.45;;;0.90;;
12906;SDS011;6521;50.498;8.474;2023-05-10T14:31:56;0.50;;;0.50;;
12906;SDS011;6521;50.498;8.474;2023-05-10T14:34:27;2.08;;;0.90;;
12906;SDS011;6521;50.498;8.474;2023-05-10T14:36:58;1.13;;;1.00;;
12906;SDS011;6521;50.498;8.474;2023-05-10T14:39:28;0.70;;;0.70;;
12906;SDS011;6521;50.498;8.474;2023-05-10T14:42:00;3.63;;;1.45;;
12906;SDS011;6521;50.498;8.474;2023-05-10T14:44:31;6.25;;;1.58;;
12906;SDS011;6521;50.498;8.474;2023-05-10T14:47:02;7.90;;;1.60;;
12906;SDS011;6521;50.498;8.474;2023-05-10T14:49:33;1.15;;;1.00;;
12906;SDS011;6521;50.498;8.474;2023-05-10T14:52:04;6.93;;;1.30;;
12906;SDS011;6521;50.498;8.474;2023-05-10T14:54:34;3.50;;;1.13;;
12906;SDS011;6521;50.498;8.474;2023-05-10T14:57:05;0.80;;;0.80;;
12906;SDS011;6521;50.498;8.474;2023-05-10T14:59:37;3.03;;;1.20;;
12906;SDS011;6521;50.498;8.474;2023-05-10T15:02:07;1.73;;;1.08;;
12906;SDS011;6521;50.498;8.474;2023-05-10T15:04:38;3.40;;;1.17;;
12906;SDS011;6521;50.498;8.474;2023-05-10T15:07:09;1.13;;;1.10;;
12906;SDS011;6521;50.498;8.474;2023-05-10T15:09:40;1.20;;;1.10;;
12906;SDS011;6521;50.498;8.474;2023-05-10T15:12:10;1.67;;;0.93;;
12906;SDS011;6521;50.498;8.474;2023-05-10T15:14:41;2.22;;;1.20;;
12906;SDS011;6521;50.498;8.474;2023-05-10T15:17:12;2.47;;;1.00;;
12906;SDS011;6521;50.498;8.474;2023-05-10T15:19:43;4.60;;;1.15;;
12906;SDS011;6521;50.498;8.474;2023-05-10T15:22:14;0.85;;;0.85;;
12906;SDS011;6521;50.498;8.474;2023-05-10T15:24:45;3.63;;;0.98;;
12906;SDS011;6521;50.498;8.474;2023-05-10T15:27:15;1.95;;;1.10;;
12906;SDS011;6521;50.498;8.474;2023-05-10T15:29:46;0.80;;;0.80;;
12906;SDS011;6521;50.498;8.474;2023-05-10T15:32:17;0.68;;;0.68;;
12906;SDS011;6521;50.498;8.474;2023-05-10T15:34:47;1.05;;;1.00;;
12906;SDS011;6521;50.498;8.474;2023-05-10T15:37:18;2.25;;;0.60;;
12906;SDS011;6521;50.498;8.474;2023-05-10T15:39:49;1.30;;;0.90;;
12906;SDS011;6521;50.498;8.474;2023-05-10T15:42:19;4.40;;;0.80;;
12906;SDS011;6521;50.498;8.474;2023-05-10T15:44:50;0.80;;;0.80;;
12906;SDS011;6521;50.498;8.474;2023-05-10T15:47:21;0.70;;;0.70;;
12906;SDS011;6521;50.498;8.474;2023-05-10T15:49:52;1.33;;;1.10;;
12906;SDS011;6521;50.498;8.474;2023-05-10T15:52:22;1.08;;;0.98;;
12906;SDS011;6521;50.498;8.474;2023-05-10T15:54:53;0.77;;;0.77;;
12906;SDS011;6521;50.498;8.474;2023-05-10T15:57:24;1.52;;;0.77;;
12906;SDS011;6521;50.498;8.474;2023-05-10T15:59:55;1.08;;;0.73;;
12906;SDS011;6521;50.498;8.474;2023-05-10T16:02:27;0.80;;;0.80;;
12906;SDS011;6521;50.498;8.474;2023-05-10T16:04:57;2.83;;;1.05;;
12906;SDS011;6521;50.498;8.474;2023-05-10T16:07:28;0.80;;;0.80;;
12906;SDS011;6521;50.498;8.474;2023-05-10T16:09:59;1.20;;;0.77;;
12906;SDS011;6521;50.498;8.474;2023-05-10T16:12:33;1.00;;;0.93;;
12906;SDS011;6521;50.498;8.474;2023-05-10T16:15:04;2.67;;;0.90;;
12906;SDS011;6521;50.498;8.474;2023-05-10T16:17:36;3.38;;;1.10;;
12906;SDS011;6521;50.498;8.474;2023-05-10T16:20:06;1.73;;;1.40;;
12906;SDS011;6521;50.498;8.474;2023-05-10T16:22:37;2.38;;;1.20;;
12906;SDS011;6521;50.498;8.474;2023-05-10T16:25:08;1.67;;;1.10;;